sensor_id;sensor_type;location;lat;lon;timestamp;P1;durP1;ratioP1;P2;durP2;ratioP2
73575;SDS011;61859;49.204;8.140;2023-06-26T00:02:17;4.43;;;3.50;;
73575;SDS011;61859;49.204;8.140;2023-06-26T00:04:43;5.30;;;4.40;;
73575;SDS011;61859;49.204;8.140;2023-06-26T00:07:09;5.43;;;3.93;;
73575;SDS011;61859;49.204;8.140;2023-06-26T00:09:35;5.97;;;3.93;;
73575;SDS011;61859;49.204;8.140;2023-06-26T00:12:01;4.90;;;4.03;;
73575;SDS011;61859;49.204;8.140;2023-06-26T00:14:26;4.43;;;3.67;;
73575;SDS011;61859;49.204;8.140;2023-06-26T00:16:52;5.03;;;3.33;;
73575;SDS011;61859;49.204;8.140;2023-06-26T00:19:18;5.53;;;4.23;;
73575;SDS011;61859;49.204;8.140;2023-06-26T00:21:44;4.60;;;3.77;;
73575;SDS011;61859;49.204;8.140;2023-06-26T00:24:16;4.60;;;3.83;;
73575;SDS011;61859;49.204;8.140;2023-06-26T00:26:42;4.50;;;4.00;;
73575;SDS011;61859;49.204;8.140;2023-06-26T00:29:08;5.70;;;3.40;;
73575;SDS011;61859;49.204;8.140;2023-06-26T00:31:33;5.07;;;3.80;;
73575;SDS011;61859;49.204;8.140;2023-06-26T00:34:00;5.83;;;3.90;;
73575;SDS011;61859;49.204;8.140;2023-06-26T00:36:26;4.00;;;3.40;;
73575;SDS011;61859;49.204;8.140;2023-06-26T00:38:52;4.57;;;3.77;;
73575;SDS011;61859;49.204;8.140;2023-06-26T00:41:18;5.57;;;4.00;;
73575;SDS011;61859;49.204;8.140;2023-06-26T00:43:44;6.10;;;3.63;;
73575;SDS011;61859;49.204;8.140;2023-06-26T00:46:10;5.33;;;3.73;;
73575;SDS011;61859;49.204;8.140;2023-06-26T00:48:38;3.93;;;3.33;;
73575;SDS011;61859;49.204;8.140;2023-06-26T00:51:05;4.40;;;3.73;;
73575;SDS011;61859;49.204;8.140;2023-06-26T00:53:32;4.40;;;3.57;;
73575;SDS011;61859;49.204;8.140;2023-06-26T00:55:58;3.90;;;3.50;;
73575;SDS011;61859;49.204;8.140;2023-06-26T00:58:24;8.30;;;3.80;;
73575;SDS011;61859;49.204;8.140;2023-06-26T01:00:50;6.27;;;3.83;;
73575;SDS011;61859;49.204;8.140;2023-06-26T01:03:17;3.80;;;3.10;;
73575;SDS011;61859;49.204;8.140;2023-06-26T01:05:43;4.23;;;3.83;;
73575;SDS011;61859;49.204;8.140;2023-06-26T01:08:11;4.23;;;3.83;;
73575;SDS011;61859;49.204;8.140;2023-06-26T01:10:37;5.47;;;3.57;;
73575;SDS011;61859;49.204;8.140;2023-06-26T01:13:03;5.53;;;3.90;;
73575;SDS011;61859;49.204;8.140;2023-06-26T01:15:29;6.77;;;3.70;;
73575;SDS011;61859;49.204;8.140;2023-06-26T01:17:54;4.27;;;3.67;;
73575;SDS011;61859;49.204;8.140;2023-06-26T01:20:24;5.67;;;3.67;;
73575;SDS011;61859;49.204;8.140;2023-06-26T01:25:36;4.10;;;3.40;;
73575;SDS011;61859;49.204;8.140;2023-06-26T01:28:03;4.97;;;3.60;;
73575;SDS011;61859;49.204;8.140;2023-06-26T01:30:31;4.77;;;3.70;;
73575;SDS011;61859;49.204;8.140;2023-06-26T01:32:59;7.13;;;4.10;;
73575;SDS011;61859;49.204;8.140;2023-06-26T01:35:26;4.30;;;3.37;;
73575;SDS011;61859;49.204;8.140;2023-06-26T01:37:52;4.40;;;4.00;;
73575;SDS011;61859;49.204;8.140;2023-06-26T01:40:18;5.43;;;3.60;;
73575;SDS011;61859;49.204;8.140;2023-06-26T01:42:43;4.07;;;3.60;;
73575;SDS011;61859;49.204;8.140;2023-06-26T01:45:11;4.40;;;3.40;;
73575;SDS011;61859;49.204;8.140;2023-06-26T01:47:48;4.10;;;3.67;;
73575;SDS011;61859;49.204;8.140;2023-06-26T01:50:17;4.77;;;3.83;;
73575;SDS011;61859;49.204;8.140;2023-06-26T01:55:43;4.20;;;3.40;;
73575;SDS011;61859;49.204;8.140;2023-06-26T01:58:19;5.37;;;4.00;;
73575;SDS011;61859;49.204;8.140;2023-06-26T02:00:47;5.50;;;4.30;;
73575;SDS011;61859;49.204;8.140;2023-06-26T02:03:13;3.93;;;3.47;;
73575;SDS011;61859;49.204;8.140;2023-06-26T02:05:39;6.67;;;4.53;;
73575;SDS011;61859;49.204;8.140;2023-06-26T02:08:04;5.10;;;4.27;;
73575;SDS011;61859;49.204;8.140;2023-06-26T02:10:30;4.90;;;3.90;;
73575;SDS011;61859;49.204;8.140;2023-06-26T02:12:56;5.67;;;4.37;;
73575;SDS011;61859;49.204;8.140;2023-06-26T02:15:22;4.10;;;3.60;;
73575;SDS011;61859;49.204;8.140;2023-06-26T02:17:47;5.17;;;4.20;;
73575;SDS011;61859;49.204;8.140;2023-06-26T02:20:16;4.57;;;3.83;;
73575;SDS011;61859;49.204;8.140;2023-06-26T02:22:42;4.50;;;3.77;;
73575;SDS011;61859;49.204;8.140;2023-06-26T02:25:08;4.97;;;4.20;;
73575;SDS011;61859;49.204;8.140;2023-06-26T02:27:34;5.03;;;3.97;;
73575;SDS011;61859;49.204;8.140;2023-06-26T02:29:59;4.77;;;3.57;;
73575;SDS011;61859;49.204;8.140;2023-06-26T02:32:25;4.90;;;3.90;;
73575;SDS011;61859;49.204;8.140;2023-06-26T02:34:50;4.33;;;3.80;;
73575;SDS011;61859;49.204;8.140;2023-06-26T02:37:19;5.13;;;4.20;;
73575;SDS011;61859;49.204;8.140;2023-06-26T02:39:44;4.57;;;4.00;;
73575;SDS011;61859;49.204;8.140;2023-06-26T02:42:10;6.97;;;4.27;;
73575;SDS011;61859;49.204;8.140;2023-06-26T02:44:36;5.17;;;4.30;;
73575;SDS011;61859;49.204;8.140;2023-06-26T02:47:02;4.60;;;4.10;;
73575;SDS011;61859;49.204;8.140;2023-06-26T02:49:28;5.83;;;4.63;;
73575;SDS011;61859;49.204;8.140;2023-06-26T02:51:53;5.97;;;4.30;;
73575;SDS011;61859;49.204;8.140;2023-06-26T02:54:19;4.07;;;3.67;;
73575;SDS011;61859;49.204;8.140;2023-06-26T02:56:44;3.87;;;3.40;;
73575;SDS011;61859;49.204;8.140;2023-06-26T02:59:10;6.27;;;4.30;;
73575;SDS011;61859;49.204;8.140;2023-06-26T03:01:35;4.33;;;3.87;;
73575;SDS011;61859;49.204;8.140;2023-06-26T03:04:01;4.53;;;3.93;;
73575;SDS011;61859;49.204;8.140;2023-06-26T03:06:27;4.80;;;3.67;;
73575;SDS011;61859;49.204;8.140;2023-06-26T03:08:53;5.10;;;4.50;;
73575;SDS011;61859;49.204;8.140;2023-06-26T03:11:19;5.27;;;4.10;;
73575;SDS011;61859;49.204;8.140;2023-06-26T03:13:44;5.50;;;4.00;;
73575;SDS011;61859;49.204;8.140;2023-06-26T03:16:10;6.07;;;3.87;;
73575;SDS011;61859;49.204;8.140;2023-06-26T03:18:35;4.50;;;3.63;;
73575;SDS011;61859;49.204;8.140;2023-06-26T03:21:01;5.60;;;4.40;;
73575;SDS011;61859;49.204;8.140;2023-06-26T03:23:26;6.17;;;4.17;;
73575;SDS011;61859;49.204;8.140;2023-06-26T03:25:52;4.60;;;3.80;;
73575;SDS011;61859;49.204;8.140;2023-06-26T03:28:18;5.57;;;4.10;;
73575;SDS011;61859;49.204;8.140;2023-06-26T03:30:43;6.07;;;3.90;;
73575;SDS011;61859;49.204;8.140;2023-06-26T03:33:09;4.90;;;4.03;;
73575;SDS011;61859;49.204;8.140;2023-06-26T03:35:35;4.93;;;4.20;;
73575;SDS011;61859;49.204;8.140;2023-06-26T03:38:01;4.43;;;3.90;;
73575;SDS011;61859;49.204;8.140;2023-06-26T03:40:26;4.80;;;3.87;;
73575;SDS011;61859;49.204;8.140;2023-06-26T03:42:52;3.83;;;3.40;;
73575;SDS011;61859;49.204;8.140;2023-06-26T03:45:18;4.67;;;3.90;;
73575;SDS011;61859;49.204;8.140;2023-06-26T03:47:44;4.70;;;3.53;;
73575;SDS011;61859;49.204;8.140;2023-06-26T03:50:12;4.23;;;3.83;;
73575;SDS011;61859;49.204;8.140;2023-06-26T03:52:37;5.20;;;4.17;;
73575;SDS011;61859;49.204;8.140;2023-06-26T03:55:03;5.83;;;4.10;;
73575;SDS011;61859;49.204;8.140;2023-06-26T03:57:29;4.97;;;3.77;;
73575;SDS011;61859;49.204;8.140;2023-06-26T03:59:54;5.57;;;4.47;;
73575;SDS011;61859;49.204;8.140;2023-06-26T04:02:20;4.83;;;4.13;;
73575;SDS011;61859;49.204;8.140;2023-06-26T04:04:45;4.33;;;3.93;;
73575;SDS011;61859;49.204;8.140;2023-06-26T04:07:11;5.67;;;4.23;;
73575;SDS011;61859;49.204;8.140;2023-06-26T04:09:36;4.63;;;3.57;;
73575;SDS011;61859;49.204;8.140;2023-06-26T04:12:02;4.90;;;4.30;;
73575;SDS011;61859;49.204;8.140;2023-06-26T04:14:28;6.23;;;3.97;;
73575;SDS011;61859;49.204;8.140;2023-06-26T04:16:53;5.13;;;4.33;;
73575;SDS011;61859;49.204;8.140;2023-06-26T04:19:19;6.23;;;4.40;;
73575;SDS011;61859;49.204;8.140;2023-06-26T04:21:44;4.43;;;3.73;;
73575;SDS011;61859;49.204;8.140;2023-06-26T04:24:10;4.13;;;3.73;;
73575;SDS011;61859;49.204;8.140;2023-06-26T04:26:35;4.33;;;3.93;;
73575;SDS011;61859;49.204;8.140;2023-06-26T04:29:02;5.00;;;3.83;;
73575;SDS011;61859;49.204;8.140;2023-06-26T04:31:28;5.17;;;4.53;;
73575;SDS011;61859;49.204;8.140;2023-06-26T04:33:53;5.07;;;4.07;;
73575;SDS011;61859;49.204;8.140;2023-06-26T04:36:20;4.53;;;3.87;;
73575;SDS011;61859;49.204;8.140;2023-06-26T04:38:46;5.40;;;4.33;;
73575;SDS011;61859;49.204;8.140;2023-06-26T04:41:13;5.67;;;4.23;;
73575;SDS011;61859;49.204;8.140;2023-06-26T04:43:38;5.13;;;4.20;;
73575;SDS011;61859;49.204;8.140;2023-06-26T04:46:04;4.67;;;3.90;;
73575;SDS011;61859;49.204;8.140;2023-06-26T04:48:30;4.60;;;4.00;;
73575;SDS011;61859;49.204;8.140;2023-06-26T04:50:56;5.10;;;4.13;;
73575;SDS011;61859;49.204;8.140;2023-06-26T04:53:24;5.10;;;3.83;;
73575;SDS011;61859;49.204;8.140;2023-06-26T04:55:50;4.83;;;3.80;;
73575;SDS011;61859;49.204;8.140;2023-06-26T04:58:16;4.53;;;3.63;;
73575;SDS011;61859;49.204;8.140;2023-06-26T05:00:42;4.63;;;3.77;;
73575;SDS011;61859;49.204;8.140;2023-06-26T05:03:09;4.73;;;3.93;;
73575;SDS011;61859;49.204;8.140;2023-06-26T05:05:38;4.30;;;3.90;;
73575;SDS011;61859;49.204;8.140;2023-06-26T05:08:14;7.23;;;4.10;;
73575;SDS011;61859;49.204;8.140;2023-06-26T05:10:44;4.63;;;3.93;;
73575;SDS011;61859;49.204;8.140;2023-06-26T05:13:10;4.57;;;3.70;;
73575;SDS011;61859;49.204;8.140;2023-06-26T05:15:35;5.10;;;3.47;;
73575;SDS011;61859;49.204;8.140;2023-06-26T05:18:01;5.73;;;3.63;;
73575;SDS011;61859;49.204;8.140;2023-06-26T05:20:26;4.43;;;3.77;;
73575;SDS011;61859;49.204;8.140;2023-06-26T05:22:52;4.33;;;3.70;;
73575;SDS011;61859;49.204;8.140;2023-06-26T05:25:18;5.20;;;4.00;;
73575;SDS011;61859;49.204;8.140;2023-06-26T05:27:46;4.07;;;3.67;;
73575;SDS011;61859;49.204;8.140;2023-06-26T05:30:13;5.50;;;3.77;;
73575;SDS011;61859;49.204;8.140;2023-06-26T05:32:39;4.20;;;3.80;;
73575;SDS011;61859;49.204;8.140;2023-06-26T05:35:05;4.47;;;3.80;;
73575;SDS011;61859;49.204;8.140;2023-06-26T05:37:33;4.80;;;4.07;;
73575;SDS011;61859;49.204;8.140;2023-06-26T05:39:59;5.23;;;4.10;;
73575;SDS011;61859;49.204;8.140;2023-06-26T05:42:26;6.13;;;4.33;;
73575;SDS011;61859;49.204;8.140;2023-06-26T05:44:53;5.07;;;3.93;;
73575;SDS011;61859;49.204;8.140;2023-06-26T05:47:18;5.00;;;3.97;;
73575;SDS011;61859;49.204;8.140;2023-06-26T05:49:44;4.37;;;3.57;;
73575;SDS011;61859;49.204;8.140;2023-06-26T05:52:10;4.67;;;3.63;;
73575;SDS011;61859;49.204;8.140;2023-06-26T05:54:36;4.17;;;3.73;;
73575;SDS011;61859;49.204;8.140;2023-06-26T05:57:02;4.67;;;3.97;;
73575;SDS011;61859;49.204;8.140;2023-06-26T05:59:29;7.57;;;4.50;;
73575;SDS011;61859;49.204;8.140;2023-06-26T06:01:56;5.87;;;3.90;;
73575;SDS011;61859;49.204;8.140;2023-06-26T06:04:22;4.87;;;4.33;;
73575;SDS011;61859;49.204;8.140;2023-06-26T06:06:47;5.20;;;4.20;;
73575;SDS011;61859;49.204;8.140;2023-06-26T06:09:13;5.77;;;3.90;;
73575;SDS011;61859;49.204;8.140;2023-06-26T06:11:38;4.83;;;4.33;;
73575;SDS011;61859;49.204;8.140;2023-06-26T06:14:04;5.87;;;3.83;;
73575;SDS011;61859;49.204;8.140;2023-06-26T06:16:29;7.37;;;4.63;;
73575;SDS011;61859;49.204;8.140;2023-06-26T06:18:55;6.20;;;3.93;;
73575;SDS011;61859;49.204;8.140;2023-06-26T06:21:21;5.97;;;4.30;;
73575;SDS011;61859;49.204;8.140;2023-06-26T06:23:46;4.43;;;4.00;;
73575;SDS011;61859;49.204;8.140;2023-06-26T06:26:12;6.95;;;4.35;;
73575;SDS011;61859;49.204;8.140;2023-06-26T06:28:38;5.40;;;3.67;;
73575;SDS011;61859;49.204;8.140;2023-06-26T06:31:06;5.72;;;4.00;;
73575;SDS011;61859;49.204;8.140;2023-06-26T06:33:32;4.88;;;3.78;;
73575;SDS011;61859;49.204;8.140;2023-06-26T06:35:57;5.57;;;3.88;;
73575;SDS011;61859;49.204;8.140;2023-06-26T06:38:23;5.00;;;4.25;;
73575;SDS011;61859;49.204;8.140;2023-06-26T06:40:49;4.88;;;4.07;;
73575;SDS011;61859;49.204;8.140;2023-06-26T06:43:14;5.93;;;4.13;;
73575;SDS011;61859;49.204;8.140;2023-06-26T06:45:40;5.20;;;4.05;;
73575;SDS011;61859;49.204;8.140;2023-06-26T06:48:06;4.20;;;3.80;;
73575;SDS011;61859;49.204;8.140;2023-06-26T06:50:31;4.28;;;3.80;;
73575;SDS011;61859;49.204;8.140;2023-06-26T06:52:57;6.43;;;3.75;;
73575;SDS011;61859;49.204;8.140;2023-06-26T06:55:22;5.60;;;4.20;;
73575;SDS011;61859;49.204;8.140;2023-06-26T06:57:48;5.32;;;4.00;;
73575;SDS011;61859;49.204;8.140;2023-06-26T07:00:15;4.13;;;3.72;;
73575;SDS011;61859;49.204;8.140;2023-06-26T07:02:42;4.63;;;4.05;;
73575;SDS011;61859;49.204;8.140;2023-06-26T07:05:09;5.07;;;3.97;;
73575;SDS011;61859;49.204;8.140;2023-06-26T07:07:35;4.80;;;4.30;;
73575;SDS011;61859;49.204;8.140;2023-06-26T07:10:11;4.38;;;3.85;;
73575;SDS011;61859;49.204;8.140;2023-06-26T07:12:38;4.82;;;3.85;;
73575;SDS011;61859;49.204;8.140;2023-06-26T07:15:04;5.10;;;3.92;;
73575;SDS011;61859;49.204;8.140;2023-06-26T07:17:31;5.32;;;3.90;;
73575;SDS011;61859;49.204;8.140;2023-06-26T07:19:57;5.40;;;3.80;;
73575;SDS011;61859;49.204;8.140;2023-06-26T07:22:24;3.83;;;3.40;;
73575;SDS011;61859;49.204;8.140;2023-06-26T07:24:49;4.53;;;3.60;;
73575;SDS011;61859;49.204;8.140;2023-06-26T07:27:15;4.80;;;3.95;;
73575;SDS011;61859;49.204;8.140;2023-06-26T07:29:41;4.40;;;3.58;;
73575;SDS011;61859;49.204;8.140;2023-06-26T07:32:07;3.55;;;3.25;;
73575;SDS011;61859;49.204;8.140;2023-06-26T07:34:33;5.22;;;4.15;;
73575;SDS011;61859;49.204;8.140;2023-06-26T07:36:58;3.58;;;3.28;;
73575;SDS011;61859;49.204;8.140;2023-06-26T07:39:24;4.03;;;3.28;;
73575;SDS011;61859;49.204;8.140;2023-06-26T07:41:50;3.95;;;3.55;;
73575;SDS011;61859;49.204;8.140;2023-06-26T07:44:15;4.40;;;3.60;;
73575;SDS011;61859;49.204;8.140;2023-06-26T07:46:41;3.50;;;3.20;;
73575;SDS011;61859;49.204;8.140;2023-06-26T07:49:06;3.75;;;3.45;;
73575;SDS011;61859;49.204;8.140;2023-06-26T07:51:32;3.88;;;3.47;;
73575;SDS011;61859;49.204;8.140;2023-06-26T07:53:57;3.70;;;3.40;;
73575;SDS011;61859;49.204;8.140;2023-06-26T07:56:23;3.78;;;3.47;;
73575;SDS011;61859;49.204;8.140;2023-06-26T07:58:48;3.67;;;3.33;;
73575;SDS011;61859;49.204;8.140;2023-06-26T08:01:14;4.20;;;3.53;;
73575;SDS011;61859;49.204;8.140;2023-06-26T08:03:39;3.95;;;3.55;;
73575;SDS011;61859;49.204;8.140;2023-06-26T08:06:05;4.53;;;3.53;;
73575;SDS011;61859;49.204;8.140;2023-06-26T08:08:31;3.78;;;3.47;;
73575;SDS011;61859;49.204;8.140;2023-06-26T08:10:56;4.30;;;3.90;;
73575;SDS011;61859;49.204;8.140;2023-06-26T08:13:22;4.28;;;3.47;;
73575;SDS011;61859;49.204;8.140;2023-06-26T08:15:47;5.50;;;3.85;;
73575;SDS011;61859;49.204;8.140;2023-06-26T08:18:13;3.70;;;3.28;;
73575;SDS011;61859;49.204;8.140;2023-06-26T08:20:38;4.70;;;3.90;;
73575;SDS011;61859;49.204;8.140;2023-06-26T08:23:04;4.85;;;3.45;;
73575;SDS011;61859;49.204;8.140;2023-06-26T08:25:30;4.60;;;4.03;;
73575;SDS011;61859;49.204;8.140;2023-06-26T08:27:55;4.18;;;3.58;;
73575;SDS011;61859;49.204;8.140;2023-06-26T08:30:21;5.03;;;3.70;;
73575;SDS011;61859;49.204;8.140;2023-06-26T08:32:47;3.72;;;3.22;;
73575;SDS011;61859;49.204;8.140;2023-06-26T08:35:13;3.90;;;3.35;;
73575;SDS011;61859;49.204;8.140;2023-06-26T08:37:38;4.00;;;3.67;;
73575;SDS011;61859;49.204;8.140;2023-06-26T08:40:04;3.80;;;3.50;;
73575;SDS011;61859;49.204;8.140;2023-06-26T08:42:31;4.22;;;3.38;;
73575;SDS011;61859;49.204;8.140;2023-06-26T08:44:56;3.53;;;3.22;;
73575;SDS011;61859;49.204;8.140;2023-06-26T08:47:22;3.40;;;3.10;;
73575;SDS011;61859;49.204;8.140;2023-06-26T08:49:52;3.95;;;3.40;;
73575;SDS011;61859;49.204;8.140;2023-06-26T08:52:30;3.47;;;3.05;;
73575;SDS011;61859;49.204;8.140;2023-06-26T08:55:01;6.45;;;3.80;;
73575;SDS011;61859;49.204;8.140;2023-06-26T08:57:31;4.22;;;3.83;;
73575;SDS011;61859;49.204;8.140;2023-06-26T08:59:57;4.65;;;3.28;;
73575;SDS011;61859;49.204;8.140;2023-06-26T09:02:23;3.65;;;3.35;;
73575;SDS011;61859;49.204;8.140;2023-06-26T09:04:49;3.85;;;3.45;;
73575;SDS011;61859;49.204;8.140;2023-06-26T09:07:15;3.80;;;3.50;;
73575;SDS011;61859;49.204;8.140;2023-06-26T09:09:41;7.88;;;3.72;;
73575;SDS011;61859;49.204;8.140;2023-06-26T09:12:08;3.92;;;3.50;;
73575;SDS011;61859;49.204;8.140;2023-06-26T09:14:34;4.10;;;3.78;;
73575;SDS011;61859;49.204;8.140;2023-06-26T09:17:01;4.53;;;3.85;;
73575;SDS011;61859;49.204;8.140;2023-06-26T09:19:27;5.35;;;3.95;;
73575;SDS011;61859;49.204;8.140;2023-06-26T09:21:52;6.38;;;3.40;;
73575;SDS011;61859;49.204;8.140;2023-06-26T09:24:19;4.18;;;3.78;;
73575;SDS011;61859;49.204;8.140;2023-06-26T09:26:47;4.13;;;3.83;;
73575;SDS011;61859;49.204;8.140;2023-06-26T09:29:13;4.95;;;4.20;;
73575;SDS011;61859;49.204;8.140;2023-06-26T09:31:39;4.50;;;3.97;;
73575;SDS011;61859;49.204;8.140;2023-06-26T09:34:05;3.97;;;3.58;;
73575;SDS011;61859;49.204;8.140;2023-06-26T09:36:31;4.07;;;3.50;;
73575;SDS011;61859;49.204;8.140;2023-06-26T09:39:05;4.75;;;3.25;;
73575;SDS011;61859;49.204;8.140;2023-06-26T09:41:35;3.97;;;3.58;;
73575;SDS011;61859;49.204;8.140;2023-06-26T09:44:03;4.15;;;3.60;;
73575;SDS011;61859;49.204;8.140;2023-06-26T09:46:30;4.15;;;3.75;;
73575;SDS011;61859;49.204;8.140;2023-06-26T09:49:08;4.82;;;3.88;;
73575;SDS011;61859;49.204;8.140;2023-06-26T09:51:39;7.03;;;3.72;;
73575;SDS011;61859;49.204;8.140;2023-06-26T09:54:06;4.78;;;4.38;;
73575;SDS011;61859;49.204;8.140;2023-06-26T09:56:32;4.28;;;3.58;;
73575;SDS011;61859;49.204;8.140;2023-06-26T09:58:59;4.10;;;3.65;;
73575;SDS011;61859;49.204;8.140;2023-06-26T10:01:27;4.43;;;3.83;;
73575;SDS011;61859;49.204;8.140;2023-06-26T10:03:54;4.43;;;3.63;;
73575;SDS011;61859;49.204;8.140;2023-06-26T10:06:23;5.32;;;3.47;;
73575;SDS011;61859;49.204;8.140;2023-06-26T10:09:00;4.68;;;3.88;;
73575;SDS011;61859;49.204;8.140;2023-06-26T10:11:32;4.18;;;3.72;;
73575;SDS011;61859;49.204;8.140;2023-06-26T10:14:17;4.45;;;4.05;;
73575;SDS011;61859;49.204;8.140;2023-06-26T10:16:44;7.55;;;3.70;;
73575;SDS011;61859;49.204;8.140;2023-06-26T10:19:11;4.18;;;3.78;;
73575;SDS011;61859;49.204;8.140;2023-06-26T10:21:39;4.40;;;4.00;;
73575;SDS011;61859;49.204;8.140;2023-06-26T10:24:06;3.97;;;3.60;;
73575;SDS011;61859;49.204;8.140;2023-06-26T10:26:33;4.00;;;3.60;;
73575;SDS011;61859;49.204;8.140;2023-06-26T10:29:03;4.90;;;3.92;;
73575;SDS011;61859;49.204;8.140;2023-06-26T10:31:30;3.75;;;3.33;;
73575;SDS011;61859;49.204;8.140;2023-06-26T10:33:57;4.43;;;3.88;;
73575;SDS011;61859;49.204;8.140;2023-06-26T10:36:30;4.30;;;3.70;;
73575;SDS011;61859;49.204;8.140;2023-06-26T10:39:06;5.63;;;3.53;;
73575;SDS011;61859;49.204;8.140;2023-06-26T10:41:38;4.40;;;3.80;;
73575;SDS011;61859;49.204;8.140;2023-06-26T10:44:11;4.13;;;3.50;;
73575;SDS011;61859;49.204;8.140;2023-06-26T10:46:48;6.03;;;3.45;;
73575;SDS011;61859;49.204;8.140;2023-06-26T10:49:18;4.03;;;2.97;;
73575;SDS011;61859;49.204;8.140;2023-06-26T10:51:46;5.38;;;3.45;;
73575;SDS011;61859;49.204;8.140;2023-06-26T10:54:16;4.50;;;3.20;;
73575;SDS011;61859;49.204;8.140;2023-06-26T10:56:53;6.55;;;3.55;;
73575;SDS011;61859;49.204;8.140;2023-06-26T10:59:26;6.80;;;3.10;;
73575;SDS011;61859;49.204;8.140;2023-06-26T11:01:54;3.08;;;2.80;;
73575;SDS011;61859;49.204;8.140;2023-06-26T11:15:15;4.53;;;3.15;;
73575;SDS011;61859;49.204;8.140;2023-06-26T11:17:42;3.83;;;3.10;;
73575;SDS011;61859;49.204;8.140;2023-06-26T11:20:10;3.10;;;2.80;;
73575;SDS011;61859;49.204;8.140;2023-06-26T11:22:37;3.92;;;2.70;;
73575;SDS011;61859;49.204;8.140;2023-06-26T11:27:42;3.00;;;2.70;;
73575;SDS011;61859;49.204;8.140;2023-06-26T11:30:09;3.03;;;2.65;;
73575;SDS011;61859;49.204;8.140;2023-06-26T11:32:38;4.05;;;2.60;;
73575;SDS011;61859;49.204;8.140;2023-06-26T11:35:04;3.10;;;2.60;;
73575;SDS011;61859;49.204;8.140;2023-06-26T11:37:31;2.58;;;1.90;;
73575;SDS011;61859;49.204;8.140;2023-06-26T11:39:57;2.60;;;2.20;;
73575;SDS011;61859;49.204;8.140;2023-06-26T11:42:23;2.30;;;2.10;;
73575;SDS011;61859;49.204;8.140;2023-06-26T11:44:49;2.50;;;2.30;;
73575;SDS011;61859;49.204;8.140;2023-06-26T11:47:19;2.42;;;2.22;;
73575;SDS011;61859;49.204;8.140;2023-06-26T11:49:46;2.63;;;2.28;;
73575;SDS011;61859;49.204;8.140;2023-06-26T11:52:12;4.90;;;2.60;;
73575;SDS011;61859;49.204;8.140;2023-06-26T11:54:39;3.85;;;2.40;;
73575;SDS011;61859;49.204;8.140;2023-06-26T11:57:05;4.65;;;2.70;;
73575;SDS011;61859;49.204;8.140;2023-06-26T11:59:34;3.13;;;2.60;;
73575;SDS011;61859;49.204;8.140;2023-06-26T12:02:04;3.13;;;2.83;;
73575;SDS011;61859;49.204;8.140;2023-06-26T12:04:35;4.03;;;2.70;;
73575;SDS011;61859;49.204;8.140;2023-06-26T12:07:05;3.35;;;2.50;;
73575;SDS011;61859;49.204;8.140;2023-06-26T12:09:33;4.10;;;2.08;;
73575;SDS011;61859;49.204;8.140;2023-06-26T12:12:03;3.42;;;2.50;;
73575;SDS011;61859;49.204;8.140;2023-06-26T12:14:29;3.10;;;2.10;;
73575;SDS011;61859;49.204;8.140;2023-06-26T12:16:55;2.55;;;2.35;;
73575;SDS011;61859;49.204;8.140;2023-06-26T12:19:28;2.50;;;2.30;;
73575;SDS011;61859;49.204;8.140;2023-06-26T12:21:54;3.90;;;2.30;;
73575;SDS011;61859;49.204;8.140;2023-06-26T12:24:22;3.03;;;2.13;;
73575;SDS011;61859;49.204;8.140;2023-06-26T12:26:52;2.58;;;2.38;;
73575;SDS011;61859;49.204;8.140;2023-06-26T12:29:21;3.60;;;2.40;;
73575;SDS011;61859;49.204;8.140;2023-06-26T12:31:53;6.30;;;2.22;;
73575;SDS011;61859;49.204;8.140;2023-06-26T12:34:19;3.92;;;2.80;;
73575;SDS011;61859;49.204;8.140;2023-06-26T12:36:50;4.90;;;2.90;;
73575;SDS011;61859;49.204;8.140;2023-06-26T12:39:17;3.72;;;3.00;;
73575;SDS011;61859;49.204;8.140;2023-06-26T12:41:53;3.50;;;3.20;;
73575;SDS011;61859;49.204;8.140;2023-06-26T12:44:27;6.13;;;3.95;;
73575;SDS011;61859;49.204;8.140;2023-06-26T12:46:54;4.53;;;3.78;;
73575;SDS011;61859;49.204;8.140;2023-06-26T12:49:31;4.35;;;3.95;;
73575;SDS011;61859;49.204;8.140;2023-06-26T12:51:57;5.45;;;3.80;;
73575;SDS011;61859;49.204;8.140;2023-06-26T12:54:24;4.60;;;4.20;;
73575;SDS011;61859;49.204;8.140;2023-06-26T12:56:49;5.35;;;4.80;;
73575;SDS011;61859;49.204;8.140;2023-06-26T12:59:15;7.20;;;4.75;;
73575;SDS011;61859;49.204;8.140;2023-06-26T13:01:41;5.10;;;4.10;;
73575;SDS011;61859;49.204;8.140;2023-06-26T13:04:07;4.93;;;4.10;;
73575;SDS011;61859;49.204;8.140;2023-06-26T13:06:33;4.78;;;3.20;;
73575;SDS011;61859;49.204;8.140;2023-06-26T13:08:59;7.13;;;4.43;;
73575;SDS011;61859;49.204;8.140;2023-06-26T13:11:24;5.38;;;4.07;;
73575;SDS011;61859;49.204;8.140;2023-06-26T13:13:50;5.07;;;4.15;;
73575;SDS011;61859;49.204;8.140;2023-06-26T13:16:15;6.22;;;4.28;;
73575;SDS011;61859;49.204;8.140;2023-06-26T13:18:41;5.50;;;3.90;;
73575;SDS011;61859;49.204;8.140;2023-06-26T13:21:07;5.03;;;3.92;;
73575;SDS011;61859;49.204;8.140;2023-06-26T13:23:32;4.53;;;3.53;;
73575;SDS011;61859;49.204;8.140;2023-06-26T13:25:58;4.15;;;3.17;;
73575;SDS011;61859;49.204;8.140;2023-06-26T13:28:23;3.38;;;3.08;;
73575;SDS011;61859;49.204;8.140;2023-06-26T13:30:49;3.22;;;2.60;;
73575;SDS011;61859;49.204;8.140;2023-06-26T13:33:14;4.75;;;2.92;;
73575;SDS011;61859;49.204;8.140;2023-06-26T13:35:41;4.45;;;2.33;;
73575;SDS011;61859;49.204;8.140;2023-06-26T13:38:06;2.65;;;2.05;;
73575;SDS011;61859;49.204;8.140;2023-06-26T13:40:32;2.45;;;1.90;;
73575;SDS011;61859;49.204;8.140;2023-06-26T13:42:57;2.85;;;2.15;;
73575;SDS011;61859;49.204;8.140;2023-06-26T13:45:24;2.08;;;1.83;;
73575;SDS011;61859;49.204;8.140;2023-06-26T13:47:50;2.20;;;1.90;;
73575;SDS011;61859;49.204;8.140;2023-06-26T13:50:15;1.75;;;1.65;;
73575;SDS011;61859;49.204;8.140;2023-06-26T13:52:42;5.45;;;1.75;;
73575;SDS011;61859;49.204;8.140;2023-06-26T13:55:08;2.47;;;1.80;;
73575;SDS011;61859;49.204;8.140;2023-06-26T13:57:33;1.52;;;1.42;;
73575;SDS011;61859;49.204;8.140;2023-06-26T13:59:59;1.77;;;1.65;;
73575;SDS011;61859;49.204;8.140;2023-06-26T14:02:25;2.20;;;1.17;;
73575;SDS011;61859;49.204;8.140;2023-06-26T14:04:51;1.50;;;1.30;;
73575;SDS011;61859;49.204;8.140;2023-06-26T14:07:17;2.13;;;1.33;;
73575;SDS011;61859;49.204;8.140;2023-06-26T14:09:42;2.05;;;1.08;;
73575;SDS011;61859;49.204;8.140;2023-06-26T14:12:08;3.03;;;1.52;;
73575;SDS011;61859;49.204;8.140;2023-06-26T14:14:34;1.63;;;1.08;;
73575;SDS011;61859;49.204;8.140;2023-06-26T14:16:59;1.70;;;1.15;;
73575;SDS011;61859;49.204;8.140;2023-06-26T14:19:25;1.48;;;1.00;;
73575;SDS011;61859;49.204;8.140;2023-06-26T14:21:51;1.20;;;1.08;;
73575;SDS011;61859;49.204;8.140;2023-06-26T14:24:16;0.90;;;0.90;;
73575;SDS011;61859;49.204;8.140;2023-06-26T14:26:42;3.00;;;1.17;;
73575;SDS011;61859;49.204;8.140;2023-06-26T14:29:08;3.38;;;1.20;;
73575;SDS011;61859;49.204;8.140;2023-06-26T14:31:33;1.40;;;0.93;;
73575;SDS011;61859;49.204;8.140;2023-06-26T14:33:59;3.03;;;1.20;;
73575;SDS011;61859;49.204;8.140;2023-06-26T14:36:24;1.35;;;0.85;;
73575;SDS011;61859;49.204;8.140;2023-06-26T14:38:51;4.80;;;1.27;;
73575;SDS011;61859;49.204;8.140;2023-06-26T14:41:17;4.28;;;1.92;;
73575;SDS011;61859;49.204;8.140;2023-06-26T14:43:43;1.63;;;1.15;;
73575;SDS011;61859;49.204;8.140;2023-06-26T14:46:10;1.90;;;1.40;;
73575;SDS011;61859;49.204;8.140;2023-06-26T14:48:36;1.58;;;1.13;;
73575;SDS011;61859;49.204;8.140;2023-06-26T14:51:01;1.35;;;1.20;;
73575;SDS011;61859;49.204;8.140;2023-06-26T14:53:27;3.90;;;2.00;;
73575;SDS011;61859;49.204;8.140;2023-06-26T14:55:52;1.83;;;1.17;;
73575;SDS011;61859;49.204;8.140;2023-06-26T14:58:18;3.60;;;1.15;;
73575;SDS011;61859;49.204;8.140;2023-06-26T15:00:44;2.20;;;1.13;;
73575;SDS011;61859;49.204;8.140;2023-06-26T15:03:09;1.55;;;1.10;;
73575;SDS011;61859;49.204;8.140;2023-06-26T15:05:35;1.95;;;1.40;;